createdAt,value
2017-11-06T00:00:09.645Z,1015.9
2017-11-06T00:01:31.169Z,1015.93
2017-11-06T00:02:53.014Z,1015.88
2017-11-06T00:04:15.201Z,1015.88
2017-11-06T00:05:37.037Z,1015.97
2017-11-06T00:06:59.536Z,1015.97
2017-11-06T00:08:21.723Z,1015.96
2017-11-06T00:09:43.223Z,1016.01
2017-11-06T00:11:05.767Z,1016.04
2017-11-06T00:12:27.939Z,1015.98
2017-11-06T00:13:50.124Z,1016.03
2017-11-06T00:15:12.033Z,1016.01
2017-11-06T00:16:33.576Z,1016.07
2017-11-06T00:17:55.796Z,1016.05
2017-11-06T00:19:17.724Z,1016.09
2017-11-06T00:20:39.895Z,1016.06
2017-11-06T00:22:01.743Z,1016.07
2017-11-06T00:23:23.917Z,1016.13
2017-11-06T00:24:45.752Z,1016.11
2017-11-06T00:26:07.705Z,1016.13
2017-11-06T00:27:29.544Z,1016.15
2017-11-06T00:28:51.519Z,1016.22
2017-11-06T00:30:13.344Z,1016.24
2017-11-06T00:31:35.523Z,1016.23
2017-11-06T00:32:57.686Z,1016.26
2017-11-06T00:34:19.192Z,1016.3
2017-11-06T00:35:41.095Z,1016.33
2017-11-06T00:37:03.546Z,1016.31
2017-11-06T00:38:25.724Z,1016.34
2017-11-06T00:39:47.340Z,1016.38
2017-11-06T00:41:08.955Z,1016.4
2017-11-06T00:42:31.129Z,1016.38
2017-11-06T00:43:52.624Z,1016.38
2017-11-06T00:45:15.125Z,1016.45
2017-11-06T00:46:36.373Z,1016.46
2017-11-06T00:47:58.195Z,1016.48
2017-11-06T00:49:20.407Z,1016.45
2017-11-06T00:50:42.908Z,1016.53
2017-11-06T00:52:04.429Z,1016.46
2017-11-06T00:53:26.613Z,1016.49
2017-11-06T00:54:48.432Z,1016.5
2017-11-06T00:56:10.277Z,1016.52
2017-11-06T00:57:32.435Z,1016.56
2017-11-06T00:58:53.951Z,1016.56
2017-11-06T01:00:16.137Z,1016.64
2017-11-06T01:01:38.634Z,1016.66
2017-11-06T01:03:00.803Z,1016.66
2017-11-06T01:04:22.806Z,1016.68
2017-11-06T01:05:44.653Z,1016.69
2017-11-06T01:07:06.858Z,1016.66
2017-11-06T01:08:29.391Z,1016.67
2017-11-06T01:09:51.237Z,1016.72
2017-11-06T01:11:13.085Z,1016.73
2017-11-06T01:12:34.936Z,1016.76
2017-11-06T01:13:57.135Z,1016.8
2017-11-06T01:15:18.672Z,1016.79
2017-11-06T01:16:41.222Z,1016.83
2017-11-06T01:18:03.045Z,1016.85
2017-11-06T01:19:25.287Z,1016.87
2017-11-06T01:20:47.789Z,1016.85
2017-11-06T01:22:09.849Z,1016.85
2017-11-06T01:23:32.386Z,1016.87
2017-11-06T01:24:53.914Z,1016.95
2017-11-06T01:26:15.774Z,1016.92
2017-11-06T01:27:38.279Z,1016.98
2017-11-06T01:29:00.491Z,1016.99
2017-11-06T01:30:22.725Z,1017.02
2017-11-06T01:31:43.905Z,1017.02
2017-11-06T01:33:05.768Z,1017.04
2017-11-06T01:34:27.705Z,1017.04
2017-11-06T01:35:49.875Z,1017.09
2017-11-06T01:38:48.554Z,1017.05
2017-11-06T01:40:10.074Z,1017.09
2017-11-06T01:41:31.638Z,1017.1
2017-11-06T01:42:53.725Z,1017.11
2017-11-06T01:44:14.895Z,1017.16
2017-11-06T01:45:37.091Z,1017.14
2017-11-06T01:46:58.581Z,1017.17
2017-11-06T01:48:19.745Z,1017.14
2017-11-06T01:49:41.593Z,1017.16
2017-11-06T01:51:03.439Z,1017.14
2017-11-06T01:52:24.644Z,1017.19
2017-11-06T01:53:46.497Z,1017.16
2017-11-06T01:55:08.343Z,1017.16
2017-11-06T01:56:30.188Z,1017.18
2017-11-06T01:57:52.626Z,1017.22
2017-11-06T01:59:14.477Z,1017.2
2017-11-06T02:00:36.328Z,1017.21
2017-11-06T02:01:57.505Z,1017.18
2017-11-06T02:03:19.445Z,1017.17
2017-11-06T02:04:41.568Z,1017.2
2017-11-06T02:06:03.743Z,1017.18
2017-11-06T02:07:25.294Z,1017.19
2017-11-06T02:08:46.789Z,1017.25
2017-11-06T02:10:08.337Z,1017.21
2017-11-06T02:11:29.844Z,1017.23
2017-11-06T02:12:51.687Z,1017.2
2017-11-06T02:14:13.917Z,1017.26
2017-11-06T02:15:36.361Z,1017.21
2017-11-06T02:16:58.200Z,1017.23
2017-11-06T02:18:20.356Z,1017.2
2017-11-06T02:19:42.849Z,1017.2
2017-11-06T02:21:05.026Z,1017.18
2017-11-06T02:22:27.245Z,1017.21
2017-11-06T02:23:49.145Z,1017.21
2017-11-06T02:25:10.972Z,1017.24
2017-11-06T02:26:32.486Z,1017.23
2017-11-06T02:27:55.076Z,1017.27
2017-11-06T02:29:16.922Z,1017.26
2017-11-06T02:30:38.849Z,1017.28
2017-11-06T02:32:00.720Z,1017.28
2017-11-06T02:33:22.935Z,1017.29
2017-11-06T02:34:44.487Z,1017.3
2017-11-06T02:36:06.982Z,1017.25
2017-11-06T02:37:29.086Z,1017.31
2017-11-06T02:38:51.264Z,1017.25
2017-11-06T02:40:12.759Z,1017.31
2017-11-06T02:41:34.947Z,1017.32
2017-11-06T02:42:56.832Z,1017.32
2017-11-06T02:44:18.667Z,1017.38
2017-11-06T02:45:40.506Z,1017.39
2017-11-06T02:47:03.045Z,1017.38
2017-11-06T02:48:24.217Z,1017.4
2017-11-06T02:49:46.396Z,1017.43
2017-11-06T02:51:07.918Z,1017.45
2017-11-06T02:52:30.198Z,1017.43
2017-11-06T02:53:52.379Z,1017.45
2017-11-06T02:55:14.526Z,1017.45
2017-11-06T02:56:37.046Z,1017.46
2017-11-06T02:57:58.994Z,1017.44
2017-11-06T02:59:20.535Z,1017.45
2017-11-06T03:00:42.718Z,1017.49
2017-11-06T03:02:04.896Z,1017.49
2017-11-06T03:03:26.777Z,1017.49
2017-11-06T03:04:48.945Z,1017.57
2017-11-06T03:06:11.120Z,1017.49
2017-11-06T03:07:33.312Z,1017.52
2017-11-06T03:08:55.521Z,1017.53
2017-11-06T03:10:17.365Z,1017.56
2017-11-06T03:11:39.007Z,1017.6
2017-11-06T03:13:01.194Z,1017.61
2017-11-06T03:14:22.678Z,1017.61
2017-11-06T03:15:44.850Z,1017.67
2017-11-06T03:17:06.683Z,1017.68
2017-11-06T03:18:27.910Z,1017.71
2017-11-06T03:19:50.417Z,1017.76
2017-11-06T03:21:12.596Z,1017.8
2017-11-06T03:22:35.204Z,1017.8
2017-11-06T03:23:56.717Z,1017.8
2017-11-06T03:25:18.679Z,1017.86
2017-11-06T03:26:40.871Z,1017.82
2017-11-06T03:28:02.380Z,1017.85
2017-11-06T03:29:24.565Z,1017.9
2017-11-06T03:30:46.480Z,1018.01
2017-11-06T03:32:08.564Z,1017.98
2017-11-06T03:33:30.073Z,1018.01
2017-11-06T03:34:51.904Z,1018.05
2017-11-06T03:36:13.063Z,1018.06
2017-11-06T03:37:35.593Z,1018.08
2017-11-06T03:38:57.834Z,1018.12
2017-11-06T03:40:19.667Z,1018.13
2017-11-06T03:41:41.610Z,1018.11
2017-11-06T03:43:03.162Z,1018.1
2017-11-06T03:44:25.697Z,1018.13
2017-11-06T03:45:47.971Z,1018.12
2017-11-06T03:47:10.239Z,1018.12
2017-11-06T03:48:32.317Z,1018.12
2017-11-06T03:49:53.815Z,1018.1
2017-11-06T03:51:15.656Z,1018.15
2017-11-06T03:52:37.491Z,1018.13
2017-11-06T03:53:58.656Z,1018.14
2017-11-06T03:55:20.553Z,1018.17
2017-11-06T03:56:42.389Z,1018.18
2017-11-06T03:58:04.224Z,1018.23
2017-11-06T03:59:25.636Z,1018.28
2017-11-06T04:00:47.464Z,1018.26
2017-11-06T04:02:09.642Z,1018.33
2017-11-06T04:03:31.514Z,1018.35
2017-11-06T04:04:53.684Z,1018.35
2017-11-06T04:06:15.852Z,1018.34
2017-11-06T04:07:37.370Z,1018.33
2017-11-06T04:08:59.701Z,1018.33
2017-11-06T04:10:21.931Z,1018.35
2017-11-06T04:11:43.756Z,1018.39
2017-11-06T04:13:05.943Z,1018.45
2017-11-06T04:14:28.146Z,1018.53
2017-11-06T04:15:49.995Z,1018.51
2017-11-06T04:17:11.837Z,1018.5
2017-11-06T04:18:33.698Z,1018.52
2017-11-06T04:19:55.893Z,1018.54
2017-11-06T04:21:17.374Z,1018.53
2017-11-06T04:22:39.385Z,1018.56
2017-11-06T04:24:01.207Z,1018.55
2017-11-06T04:25:22.798Z,1018.61
2017-11-06T04:26:44.636Z,1018.63
2017-11-06T04:28:06.528Z,1018.65
2017-11-06T04:29:28.688Z,1018.65
2017-11-06T04:30:50.941Z,1018.64
2017-11-06T04:32:13.120Z,1018.66
2017-11-06T04:33:34.977Z,1018.68
2017-11-06T04:34:56.811Z,1018.73
2017-11-06T04:36:18.657Z,1018.78
2017-11-06T04:37:41.152Z,1018.8
2017-11-06T04:39:02.989Z,1018.81
2017-11-06T04:40:24.866Z,1018.84
2017-11-06T04:41:47.376Z,1018.86
2017-11-06T04:43:09.291Z,1018.9
2017-11-06T04:44:31.598Z,1018.97
2017-11-06T04:45:53.436Z,1018.98
2017-11-06T04:47:14.603Z,1018.99
2017-11-06T04:48:36.766Z,1019.02
2017-11-06T04:49:58.609Z,1019.05
2017-11-06T04:51:20.116Z,1019.06
2017-11-06T04:52:42.636Z,1019.08
2017-11-06T04:54:05.396Z,1019.14
2017-11-06T04:55:27.547Z,1019.14
2017-11-06T04:56:49.037Z,1019.19
2017-11-06T04:58:10.565Z,1019.21
2017-11-06T04:59:32.105Z,1019.28
2017-11-06T05:00:53.600Z,1019.3
2017-11-06T05:02:15.822Z,1019.32
2017-11-06T05:03:38.380Z,1019.38
2017-11-06T05:05:00.578Z,1019.46
2017-11-06T05:06:22.086Z,1019.4
2017-11-06T05:07:44.398Z,1019.38
2017-11-06T05:09:06.898Z,1019.41
2017-11-06T05:10:28.407Z,1019.41
2017-11-06T05:11:49.945Z,1019.43
2017-11-06T05:13:11.469Z,1019.48
2017-11-06T05:14:33.759Z,1019.41
2017-11-06T05:15:56.117Z,1019.43
2017-11-06T05:17:18.280Z,1019.48
2017-11-06T05:18:39.799Z,1019.48
2017-11-06T05:20:01.634Z,1019.52
2017-11-06T05:21:23.806Z,1019.52
2017-11-06T05:22:45.320Z,1019.54
2017-11-06T05:24:06.815Z,1019.56
2017-11-06T05:25:28.993Z,1019.55
2017-11-06T05:26:51.165Z,1019.57
2017-11-06T05:28:13.058Z,1019.68
2017-11-06T05:29:34.907Z,1019.74
2017-11-06T05:30:57.167Z,1019.78
2017-11-06T05:32:18.746Z,1019.75
2017-11-06T05:33:40.980Z,1019.78
2017-11-06T05:35:02.825Z,1019.79
2017-11-06T05:36:25.337Z,1019.76
2017-11-06T05:37:47.178Z,1019.78
2017-11-06T05:39:09.408Z,1019.86
2017-11-06T05:40:30.911Z,1019.86
2017-11-06T05:41:52.418Z,1019.91
2017-11-06T05:43:14.954Z,1019.93
2017-11-06T05:44:37.453Z,1019.96
2017-11-06T05:45:59.695Z,1019.97
2017-11-06T05:47:21.547Z,1019.98
2017-11-06T05:48:44.036Z,1020
2017-11-06T05:50:06.227Z,1020.08
2017-11-06T05:51:28.795Z,1020.06
2017-11-06T05:52:50.705Z,1020.08
2017-11-06T05:54:12.465Z,1020.12
2017-11-06T05:55:34.399Z,1020.15
2017-11-06T05:56:56.971Z,1020.19
2017-11-06T05:58:19.141Z,1020.14
2017-11-06T05:59:41.084Z,1020.1
2017-11-06T06:01:02.985Z,1020.2
2017-11-06T06:02:25.215Z,1020.23
2017-11-06T06:03:47.393Z,1020.22
2017-11-06T06:05:09.623Z,1020.24
2017-11-06T06:06:32.117Z,1020.25
2017-11-06T06:07:54.299Z,1020.25
2017-11-06T06:09:15.799Z,1020.26
2017-11-06T06:10:37.682Z,1020.25
2017-11-06T06:12:00.191Z,1020.23
2017-11-06T06:13:22.167Z,1020.22
2017-11-06T06:14:44.111Z,1020.19
2017-11-06T06:16:05.936Z,1020.21
2017-11-06T06:17:27.763Z,1020.15
2017-11-06T06:18:49.617Z,1020.2
2017-11-06T06:20:11.821Z,1020.22
2017-11-06T06:21:34.076Z,1020.3
2017-11-06T06:22:55.946Z,1020.32
2017-11-06T06:24:17.851Z,1020.32
2017-11-06T06:25:40.357Z,1020.31
2017-11-06T06:27:02.864Z,1020.32
2017-11-06T06:28:24.748Z,1020.3
2017-11-06T06:29:46.589Z,1020.41
2017-11-06T06:31:08.438Z,1020.46
2017-11-06T06:32:31.184Z,1020.56
2017-11-06T06:33:53.344Z,1020.61
2017-11-06T06:35:15.634Z,1020.64
2017-11-06T06:36:37.618Z,1020.64
2017-11-06T06:37:58.791Z,1020.67
2017-11-06T06:39:19.959Z,1020.69
2017-11-06T06:40:42.184Z,1020.66
2017-11-06T06:42:04.342Z,1020.73
2017-11-06T06:43:26.280Z,1020.75
2017-11-06T06:44:48.154Z,1020.77
2017-11-06T06:46:10.343Z,1020.84
2017-11-06T06:47:31.516Z,1020.87
2017-11-06T06:48:54.049Z,1020.89
2017-11-06T06:50:15.895Z,1020.93
2017-11-06T06:51:37.724Z,1020.9
2017-11-06T06:52:59.878Z,1020.94
2017-11-06T06:54:22.092Z,1021
2017-11-06T06:55:43.602Z,1020.98
2017-11-06T06:57:05.832Z,1020.96
2017-11-06T06:58:27.421Z,1020.97
2017-11-06T06:59:48.990Z,1021.02
2017-11-06T07:01:10.884Z,1021.06
2017-11-06T07:02:33.374Z,1021.11
2017-11-06T07:03:55.924Z,1021.08
2017-11-06T07:05:17.144Z,1021.14
2017-11-06T07:06:39.313Z,1021.14
2017-11-06T07:08:01.293Z,1021.17
2017-11-06T07:09:23.481Z,1021.19
2017-11-06T07:10:45.678Z,1021.23
2017-11-06T07:12:07.565Z,1021.26
2017-11-06T07:13:30.158Z,1021.26
2017-11-06T07:14:52.325Z,1021.25
2017-11-06T07:16:15.306Z,1021.25
2017-11-06T07:17:37.810Z,1021.31
2017-11-06T07:18:59.334Z,1021.35
2017-11-06T07:20:21.188Z,1021.37
2017-11-06T07:21:43.057Z,1021.4
2017-11-06T07:23:05.017Z,1021.4
2017-11-06T07:24:27.226Z,1021.42
2017-11-06T07:25:49.793Z,1021.42
2017-11-06T07:27:12.215Z,1021.48
2017-11-06T07:28:34.373Z,1021.42
2017-11-06T07:29:56.567Z,1021.46
2017-11-06T07:31:18.752Z,1021.42
2017-11-06T07:32:41.167Z,1021.46
2017-11-06T07:34:02.793Z,1021.49
2017-11-06T07:35:24.638Z,1021.55
2017-11-06T07:36:46.816Z,1021.52
2017-11-06T07:38:09.652Z,1021.59
2017-11-06T07:39:31.851Z,1021.62
2017-11-06T07:40:54.384Z,1021.65
2017-11-06T07:42:16.220Z,1021.68
2017-11-06T07:43:38.138Z,1021.71
2017-11-06T07:45:00.025Z,1021.71
2017-11-06T07:46:21.603Z,1021.78
2017-11-06T07:47:43.438Z,1021.77
2017-11-06T07:49:05.908Z,1021.8
2017-11-06T07:50:27.512Z,1021.81
2017-11-06T07:51:50.023Z,1021.84
2017-11-06T07:53:12.190Z,1021.89
2017-11-06T07:54:33.718Z,1021.92
2017-11-06T07:55:55.885Z,1021.98
2017-11-06T07:57:17.804Z,1022.03
2017-11-06T07:58:39.662Z,1022.04
2017-11-06T08:00:01.834Z,1022.06
2017-11-06T08:01:24.142Z,1022.06
2017-11-06T08:02:46.023Z,1022.07
2017-11-06T08:04:08.618Z,1022.05
2017-11-06T08:05:30.135Z,1022.15
2017-11-06T08:06:52.698Z,1022.1
2017-11-06T08:08:14.893Z,1022.14
2017-11-06T08:09:36.747Z,1022.19
2017-11-06T08:10:58.229Z,1022.15
2017-11-06T08:12:20.145Z,1022.19
2017-11-06T08:13:41.659Z,1022.23
2017-11-06T08:15:03.865Z,1022.28
2017-11-06T08:16:26.029Z,1022.25
2017-11-06T08:17:47.263Z,1022.28
2017-11-06T08:19:09.442Z,1022.32
2017-11-06T08:20:31.972Z,1022.34
2017-11-06T08:21:54.271Z,1022.37
2017-11-06T08:23:16.526Z,1022.39
2017-11-06T08:24:38.038Z,1022.37
2017-11-06T08:26:00.594Z,1022.39
2017-11-06T08:27:22.481Z,1022.39
2017-11-06T08:28:44.718Z,1022.42
2017-11-06T08:30:06.904Z,1022.43
2017-11-06T08:31:29.098Z,1022.47
2017-11-06T08:32:51.612Z,1022.44
2017-11-06T08:34:13.774Z,1022.51
2017-11-06T08:35:35.948Z,1022.5
2017-11-06T08:36:57.843Z,1022.57
2017-11-06T08:38:19.715Z,1022.49
2017-11-06T08:39:42.222Z,1022.55
2017-11-06T08:41:04.482Z,1022.57
2017-11-06T08:42:26.669Z,1022.56
2017-11-06T08:43:48.509Z,1022.56
2017-11-06T08:45:11.037Z,1022.6
2017-11-06T08:46:33.224Z,1022.62
2017-11-06T08:47:55.403Z,1022.58
2017-11-06T08:49:17.265Z,1022.58
2017-11-06T08:50:39.764Z,1022.61
2017-11-06T08:52:02.412Z,1022.61
2017-11-06T08:53:24.266Z,1022.61
2017-11-06T08:54:46.140Z,1022.64
2017-11-06T08:56:08.648Z,1022.62
2017-11-06T08:57:30.931Z,1022.62
2017-11-06T08:58:52.759Z,1022.67
2017-11-06T09:00:14.604Z,1022.67
2017-11-06T09:01:36.772Z,1022.73
2017-11-06T09:02:58.964Z,1022.72
2017-11-06T09:04:21.157Z,1022.75
2017-11-06T09:05:43.924Z,1022.77
2017-11-06T09:07:05.770Z,1022.75
2017-11-06T09:08:27.616Z,1022.75
2017-11-06T09:09:49.798Z,1022.81
2017-11-06T09:11:11.320Z,1022.8
2017-11-06T09:12:33.236Z,1022.83
2017-11-06T09:13:55.419Z,1022.84
2017-11-06T09:15:17.613Z,1022.84
2017-11-06T09:16:39.464Z,1022.88
2017-11-06T09:18:01.962Z,1022.86
2017-11-06T09:19:23.808Z,1022.89
2017-11-06T09:20:45.973Z,1022.94
2017-11-06T09:22:07.842Z,1022.96
2017-11-06T09:23:29.355Z,1023.02
2017-11-06T09:24:51.548Z,1022.99
2017-11-06T09:26:13.748Z,1023.01
2017-11-06T09:27:35.935Z,1023.04
2017-11-06T09:28:58.132Z,1023.02
2017-11-06T09:30:20.734Z,1023.04
2017-11-06T09:31:42.912Z,1023.07
2017-11-06T09:33:05.433Z,1023.1
2017-11-06T09:34:27.736Z,1023.13
2017-11-06T09:35:50.236Z,1023.18
2017-11-06T09:37:12.425Z,1023.2
2017-11-06T09:38:34.516Z,1023.25
2017-11-06T09:39:56.713Z,1023.26
2017-11-06T09:41:17.957Z,1023.31
2017-11-06T09:42:39.841Z,1023.39
2017-11-06T09:44:02.278Z,1023.37
2017-11-06T09:45:23.788Z,1023.35
2017-11-06T09:46:46.303Z,1023.36
2017-11-06T09:48:07.808Z,1023.35
2017-11-06T09:49:29.992Z,1023.43
2017-11-06T09:50:51.824Z,1023.47
2017-11-06T09:52:13.003Z,1023.47
2017-11-06T09:53:34.514Z,1023.48
2017-11-06T09:54:55.988Z,1023.45
2017-11-06T09:56:17.819Z,1023.47
2017-11-06T09:57:39.998Z,1023.45
2017-11-06T09:59:02.281Z,1023.51
2017-11-06T10:00:24.459Z,1023.49
2017-11-06T10:01:46.326Z,1023.53
2017-11-06T10:03:08.514Z,1023.52
2017-11-06T10:04:30.385Z,1023.53
2017-11-06T10:05:53.247Z,1023.55
2017-11-06T10:07:15.103Z,1023.52
2017-11-06T10:08:37.292Z,1023.54
2017-11-06T10:09:59.603Z,1023.57
2017-11-06T10:11:21.094Z,1023.51
2017-11-06T10:12:43.307Z,1023.5
2017-11-06T10:14:05.489Z,1023.48
2017-11-06T10:15:27.413Z,1023.5
2017-11-06T10:16:49.617Z,1023.54
2017-11-06T10:18:11.842Z,1023.57
2017-11-06T10:19:33.029Z,1023.55
2017-11-06T10:20:55.335Z,1023.62
2017-11-06T10:22:17.504Z,1023.66
2017-11-06T10:23:39.713Z,1023.64
2017-11-06T10:25:01.232Z,1023.7
2017-11-06T10:26:23.402Z,1023.73
2017-11-06T10:27:46.238Z,1023.76
2017-11-06T10:29:08.084Z,1023.75
2017-11-06T10:30:29.904Z,1023.78
2017-11-06T10:31:52.135Z,1023.74
2017-11-06T10:33:14.584Z,1023.75
2017-11-06T10:34:36.854Z,1023.73
2017-11-06T10:35:59.353Z,1023.78
2017-11-06T10:37:21.524Z,1023.83
2017-11-06T10:38:43.032Z,1023.79
2017-11-06T10:40:04.881Z,1023.79
2017-11-06T10:41:26.741Z,1023.79
2017-11-06T10:42:48.691Z,1023.81
2017-11-06T10:44:10.966Z,1023.84
2017-11-06T10:45:32.200Z,1023.93
2017-11-06T10:46:54.056Z,1023.96
2017-11-06T10:48:16.407Z,1023.98
2017-11-06T10:49:38.230Z,1023.98
2017-11-06T10:51:00.135Z,1023.97
2017-11-06T10:52:22.298Z,1023.93
2017-11-06T10:53:44.486Z,1023.96
2017-11-06T10:55:06.994Z,1023.96
2017-11-06T10:56:28.842Z,1024.02
2017-11-06T10:57:51.134Z,1024.04
2017-11-06T10:59:13.071Z,1024.04
2017-11-06T11:00:35.608Z,1024.03
2017-11-06T11:01:57.457Z,1024.06
2017-11-06T11:03:19.724Z,1024.07
2017-11-06T11:04:41.908Z,1024.06
2017-11-06T11:06:04.785Z,1024.08
2017-11-06T11:07:26.645Z,1024.07
2017-11-06T11:08:48.877Z,1023.98
2017-11-06T11:10:11.059Z,1023.99
2017-11-06T11:11:32.910Z,1024.02
2017-11-06T11:12:55.478Z,1024.07
2017-11-06T11:14:17.994Z,1024.11
2017-11-06T11:15:40.274Z,1024.09
2017-11-06T11:17:02.519Z,1024.05
2017-11-06T11:18:24.364Z,1024.04
2017-11-06T11:19:46.204Z,1024.08
2017-11-06T11:21:07.707Z,1024.06
2017-11-06T11:22:30.126Z,1024.03
2017-11-06T11:23:52.714Z,1024.07
2017-11-06T11:25:15.026Z,1024.09
2017-11-06T11:26:37.542Z,1024.12
2017-11-06T11:27:59.427Z,1024.12
2017-11-06T11:29:21.597Z,1024.13
2017-11-06T11:30:43.444Z,1024.12
2017-11-06T11:32:05.292Z,1024.13
2017-11-06T11:33:27.466Z,1024.16
2017-11-06T11:34:49.995Z,1024.17
2017-11-06T11:36:12.204Z,1024.28
2017-11-06T11:37:34.782Z,1024.21
2017-11-06T11:38:57.275Z,1024.23
2017-11-06T11:40:19.464Z,1024.21
2017-11-06T11:41:41.357Z,1024.18
2017-11-06T11:43:03.529Z,1024.27
2017-11-06T11:44:25.754Z,1024.28
2017-11-06T11:45:47.924Z,1024.24
2017-11-06T11:47:10.474Z,1024.23
2017-11-06T11:48:32.886Z,1024.28
2017-11-06T11:49:54.438Z,1024.33
2017-11-06T11:51:16.347Z,1024.29
2017-11-06T11:52:38.859Z,1024.3
2017-11-06T11:54:00.756Z,1024.3
2017-11-06T11:55:22.974Z,1024.33
2017-11-06T11:56:44.824Z,1024.28
2017-11-06T11:58:07.011Z,1024.28
2017-11-06T11:59:28.864Z,1024.29
2017-11-06T12:00:51.347Z,1024.3
2017-11-06T12:02:13.215Z,1024.36
2017-11-06T12:03:35.463Z,1024.34
2017-11-06T12:04:57.986Z,1024.32
2017-11-06T12:06:20.291Z,1024.37
2017-11-06T12:07:42.226Z,1024.37
2017-11-06T12:09:04.405Z,1024.36
2017-11-06T12:10:26.911Z,1024.38
2017-11-06T12:11:48.757Z,1024.38
2017-11-06T12:13:11.277Z,1024.39
2017-11-06T12:14:33.450Z,1024.37
2017-11-06T12:15:55.977Z,1024.39
2017-11-06T12:17:18.180Z,1024.37
2017-11-06T12:18:40.376Z,1024.39
2017-11-06T12:20:01.889Z,1024.36
2017-11-06T12:21:23.481Z,1024.35
2017-11-06T12:22:45.057Z,1024.38
2017-11-06T12:24:07.356Z,1024.37
2017-11-06T12:25:28.886Z,1024.38
2017-11-06T12:26:50.409Z,1024.36
2017-11-06T12:28:12.287Z,1024.34
2017-11-06T12:29:34.461Z,1024.38
2017-11-06T12:30:56.296Z,1024.4
2017-11-06T12:32:17.808Z,1024.42
2017-11-06T12:33:40.333Z,1024.38
2017-11-06T12:35:02.205Z,1024.46
2017-11-06T12:36:24.053Z,1024.48
2017-11-06T12:37:46.256Z,1024.47
2017-11-06T12:39:08.337Z,1024.49
2017-11-06T12:40:30.603Z,1024.49
2017-11-06T12:41:52.801Z,1024.46
2017-11-06T12:43:14.986Z,1024.49
2017-11-06T12:44:37.508Z,1024.49
2017-11-06T12:45:59.780Z,1024.48
2017-11-06T12:47:22.389Z,1024.44
2017-11-06T12:48:44.573Z,1024.45
2017-11-06T12:50:06.770Z,1024.43
2017-11-06T12:51:29.354Z,1024.41
2017-11-06T12:52:51.877Z,1024.41
2017-11-06T12:54:14.045Z,1024.47
2017-11-06T12:55:36.519Z,1024.46
2017-11-06T12:56:58.783Z,1024.45
2017-11-06T12:58:20.996Z,1024.49
2017-11-06T12:59:43.529Z,1024.51
2017-11-06T13:01:05.637Z,1024.58
2017-11-06T13:02:27.812Z,1024.56
2017-11-06T13:03:49.666Z,1024.58
2017-11-06T13:05:11.858Z,1024.6
2017-11-06T13:06:34.151Z,1024.59
2017-11-06T13:07:56.335Z,1024.58
2017-11-06T13:09:18.180Z,1024.59
2017-11-06T13:10:40.795Z,1024.58
2017-11-06T13:12:03.314Z,1024.6
2017-11-06T13:13:25.972Z,1024.59
2017-11-06T13:14:48.461Z,1024.6
2017-11-06T13:16:10.526Z,1024.58
2017-11-06T13:17:32.364Z,1024.62
2017-11-06T13:18:54.299Z,1024.62
2017-11-06T13:20:16.497Z,1024.64
2017-11-06T13:21:38.695Z,1024.66
2017-11-06T13:23:00.946Z,1024.66
2017-11-06T13:24:22.865Z,1024.64
2017-11-06T13:25:45.075Z,1024.7
2017-11-06T13:27:07.610Z,1024.67
2017-11-06T13:28:29.473Z,1024.7
2017-11-06T13:29:51.678Z,1024.73
2017-11-06T13:31:13.268Z,1024.79
2017-11-06T13:32:34.803Z,1024.79
2017-11-06T13:33:57.371Z,1024.82
2017-11-06T13:35:19.210Z,1024.89
2017-11-06T13:36:41.826Z,1024.81
2017-11-06T13:38:04.033Z,1024.85
2017-11-06T13:39:25.921Z,1024.87
2017-11-06T13:40:47.435Z,1024.86
2017-11-06T13:42:08.955Z,1024.89
2017-11-06T13:43:31.157Z,1024.9
2017-11-06T13:44:53.023Z,1024.93
2017-11-06T13:46:15.207Z,1024.9
2017-11-06T13:47:37.833Z,1024.95
2017-11-06T13:49:00.424Z,1024.91
2017-11-06T13:50:22.273Z,1024.99
2017-11-06T13:51:44.534Z,1025.03
2017-11-06T13:53:06.833Z,1025.07
2017-11-06T13:54:29.014Z,1025.07
2017-11-06T13:55:51.215Z,1025.04
2017-11-06T13:57:13.914Z,1025.07
2017-11-06T13:58:36.124Z,1025.05
2017-11-06T13:59:58.644Z,1025.06
2017-11-06T14:01:20.980Z,1025.05
2017-11-06T14:02:42.833Z,1025.04
2017-11-06T14:04:05.057Z,1025.08
2017-11-06T14:05:26.946Z,1025.06
2017-11-06T14:06:47.795Z,1025.12
2017-11-06T14:08:09.658Z,1025.13
2017-11-06T14:09:32.195Z,1025.11
2017-11-06T14:10:54.041Z,1025.19
2017-11-06T14:12:16.205Z,1025.17
2017-11-06T14:13:38.734Z,1025.2
2017-11-06T14:15:01.273Z,1025.25
2017-11-06T14:16:23.476Z,1025.27
2017-11-06T14:17:45.698Z,1025.24
2017-11-06T14:19:07.880Z,1025.3
2017-11-06T14:20:29.414Z,1025.31
2017-11-06T14:21:51.286Z,1025.33
2017-11-06T14:23:13.525Z,1025.35
2017-11-06T14:24:36.059Z,1025.4
2017-11-06T14:25:57.916Z,1025.44
2017-11-06T14:27:19.771Z,1025.44
2017-11-06T14:28:41.903Z,1025.49
2017-11-06T14:30:04.140Z,1025.49
2017-11-06T14:31:26.334Z,1025.55
2017-11-06T14:32:48.535Z,1025.54
2017-11-06T14:34:11.078Z,1025.58
2017-11-06T14:35:32.905Z,1025.54
2017-11-06T14:36:54.759Z,1025.58
2017-11-06T14:38:16.688Z,1025.57
2017-11-06T14:39:38.733Z,1025.53
2017-11-06T14:41:00.918Z,1025.56
2017-11-06T14:42:22.437Z,1025.56
2017-11-06T14:43:44.627Z,1025.63
2017-11-06T14:45:06.479Z,1025.58
2017-11-06T14:46:28.654Z,1025.63
2017-11-06T14:47:50.503Z,1025.62
2017-11-06T14:49:12.472Z,1025.7
2017-11-06T14:50:35.086Z,1025.68
2017-11-06T14:51:57.192Z,1025.67
2017-11-06T14:53:19.025Z,1025.68
2017-11-06T14:54:41.254Z,1025.67
2017-11-06T14:56:03.437Z,1025.72
2017-11-06T14:57:25.634Z,1025.73
2017-11-06T14:58:48.185Z,1025.79
2017-11-06T15:00:10.800Z,1025.78
2017-11-06T15:01:32.668Z,1025.8
2017-11-06T15:02:54.946Z,1025.77
2017-11-06T15:04:16.823Z,1025.8
2017-11-06T15:05:39.001Z,1025.84
2017-11-06T15:07:01.238Z,1025.84
2017-11-06T15:08:23.854Z,1025.8
2017-11-06T15:09:46.162Z,1025.86
2017-11-06T15:11:08.717Z,1025.82
2017-11-06T15:12:30.581Z,1025.87
2017-11-06T15:13:53.234Z,1025.81
2017-11-06T15:15:15.127Z,1025.83
2017-11-06T15:16:36.998Z,1025.82
2017-11-06T15:17:59.778Z,1025.82
2017-11-06T15:19:21.986Z,1025.86
2017-11-06T15:20:43.956Z,1025.84
2017-11-06T15:22:06.158Z,1025.84
2017-11-06T15:23:28.479Z,1025.85
2017-11-06T15:24:50.651Z,1025.89
2017-11-06T15:26:12.842Z,1025.93
2017-11-06T15:27:35.066Z,1025.98
2017-11-06T15:28:57.240Z,1026.02
2017-11-06T15:30:19.440Z,1025.95
2017-11-06T15:31:41.631Z,1025.96
2017-11-06T15:33:03.548Z,1025.98
2017-11-06T15:34:26.372Z,1025.94
2017-11-06T15:35:48.968Z,1025.95
2017-11-06T15:37:10.912Z,1025.97
2017-11-06T15:38:33.098Z,1025.99
2017-11-06T15:39:55.346Z,1026.01
2017-11-06T15:41:17.995Z,1025.98
2017-11-06T15:42:40.513Z,1026.01
2017-11-06T15:44:02.066Z,1026
2017-11-06T15:45:24.603Z,1026.01
2017-11-06T15:46:46.796Z,1026.02
2017-11-06T15:48:09.017Z,1026.08
2017-11-06T15:49:31.284Z,1026.12
2017-11-06T15:50:53.471Z,1026.13
2017-11-06T15:52:16.036Z,1026.11
2017-11-06T15:53:38.224Z,1026.06
2017-11-06T15:55:00.446Z,1026.07
2017-11-06T15:56:23.191Z,1026.02
2017-11-06T15:57:45.444Z,1026.04
2017-11-06T15:59:07.622Z,1026.08
2017-11-06T16:00:29.463Z,1026.07
2017-11-06T16:01:52.306Z,1026.13
2017-11-06T16:03:14.526Z,1026.12
2017-11-06T16:04:36.722Z,1026.09
2017-11-06T16:05:58.578Z,1026.13
2017-11-06T16:07:20.568Z,1026.14
2017-11-06T16:08:43.120Z,1026.18
2017-11-06T16:10:04.965Z,1026.15
2017-11-06T16:11:27.175Z,1026.21
2017-11-06T16:12:49.708Z,1026.16
2017-11-06T16:14:12.221Z,1026.18
2017-11-06T16:15:34.738Z,1026.14
2017-11-06T16:16:57.263Z,1026.19
2017-11-06T16:18:19.487Z,1026.19
2017-11-06T16:19:41.698Z,1026.2
2017-11-06T16:21:03.562Z,1026.17
2017-11-06T16:22:25.445Z,1026.24
2017-11-06T16:23:47.696Z,1026.23
2017-11-06T16:25:10.261Z,1026.22
2017-11-06T16:26:32.209Z,1026.23
2017-11-06T16:27:54.384Z,1026.21
2017-11-06T16:29:16.286Z,1026.23
2017-11-06T16:30:38.356Z,1026.25
2017-11-06T16:32:00.962Z,1026.31
2017-11-06T16:33:23.190Z,1026.35
2017-11-06T16:34:45.380Z,1026.33
2017-11-06T16:36:07.670Z,1026.37